sensor_id;sensor_type;location;lat;lon;timestamp;pressure;altitude;pressure_sealevel;temperature;humidity
14117;BME280;7137;51.436;6.544;2022-10-16T00:01:55;100686.03;;;14.12;100.00
14117;BME280;7137;51.436;6.544;2022-10-16T00:04:56;100682.84;;;14.06;100.00
14117;BME280;7137;51.436;6.544;2022-10-16T00:07:58;100679.88;;;14.13;100.00
14117;BME280;7137;51.436;6.544;2022-10-16T00:11:01;100683.56;;;14.09;100.00
14117;BME280;7137;51.436;6.544;2022-10-16T00:14:05;100681.78;;;14.10;100.00
14117;BME280;7137;51.436;6.544;2022-10-16T00:17:09;100681.13;;;14.05;100.00
14117;BME280;7137;51.436;6.544;2022-10-16T00:20:10;100691.16;;;14.15;100.00
14117;BME280;7137;51.436;6.544;2022-10-16T00:23:12;100691.16;;;14.15;100.00
14117;BME280;7137;51.436;6.544;2022-10-16T00:26:15;100693.16;;;14.10;100.00
14117;BME280;7137;51.436;6.544;2022-10-16T00:29:17;100695.19;;;14.04;100.00
14117;BME280;7137;51.436;6.544;2022-10-16T00:32:20;100690.38;;;14.13;100.00
14117;BME280;7137;51.436;6.544;2022-10-16T00:35:21;100688.69;;;14.12;100.00
14117;BME280;7137;51.436;6.544;2022-10-16T00:38:23;100686.31;;;14.06;100.00
14117;BME280;7137;51.436;6.544;2022-10-16T00:41:25;100675.63;;;14.11;100.00
14117;BME280;7137;51.436;6.544;2022-10-16T00:44:48;100688.31;;;14.01;100.00
14117;BME280;7137;51.436;6.544;2022-10-16T00:47:53;100688.25;;;14.03;100.00
14117;BME280;7137;51.436;6.544;2022-10-16T00:50:57;100680.81;;;13.93;100.00
14117;BME280;7137;51.436;6.544;2022-10-16T00:54:00;100671.00;;;13.97;100.00
14117;BME280;7137;51.436;6.544;2022-10-16T00:57:05;100677.09;;;13.98;100.00
14117;BME280;7137;51.436;6.544;2022-10-16T01:00:09;100684.31;;;13.92;100.00
14117;BME280;7137;51.436;6.544;2022-10-16T01:03:25;100677.44;;;13.90;100.00
14117;BME280;7137;51.436;6.544;2022-10-16T01:06:36;100676.88;;;13.83;100.00
14117;BME280;7137;51.436;6.544;2022-10-16T01:09:49;100681.91;;;13.88;100.00
14117;BME280;7137;51.436;6.544;2022-10-16T01:12:58;100688.78;;;13.90;100.00
14117;BME280;7137;51.436;6.544;2022-10-16T01:16:05;100684.53;;;13.88;100.00
14117;BME280;7137;51.436;6.544;2022-10-16T01:19:14;100694.81;;;13.92;100.00
14117;BME280;7137;51.436;6.544;2022-10-16T01:22:19;100686.25;;;13.89;100.00
14117;BME280;7137;51.436;6.544;2022-10-16T01:25:26;100691.22;;;13.95;100.00
14117;BME280;7137;51.436;6.544;2022-10-16T01:28:37;100685.47;;;14.06;100.00
14117;BME280;7137;51.436;6.544;2022-10-16T01:31:44;100687.38;;;14.02;100.00
14117;BME280;7137;51.436;6.544;2022-10-16T01:34:51;100687.81;;;14.12;100.00
14117;BME280;7137;51.436;6.544;2022-10-16T01:37:57;100678.88;;;14.16;100.00
14117;BME280;7137;51.436;6.544;2022-10-16T01:41:06;100676.94;;;14.19;100.00
14117;BME280;7137;51.436;6.544;2022-10-16T01:44:16;100669.84;;;14.21;100.00
14117;BME280;7137;51.436;6.544;2022-10-16T01:47:22;100663.88;;;14.18;100.00
14117;BME280;7137;51.436;6.544;2022-10-16T01:50:26;100679.00;;;14.13;100.00
14117;BME280;7137;51.436;6.544;2022-10-16T01:53:29;100673.91;;;14.10;100.00
14117;BME280;7137;51.436;6.544;2022-10-16T01:56:31;100674.47;;;13.98;100.00
14117;BME280;7137;51.436;6.544;2022-10-16T01:59:38;100682.44;;;13.96;100.00
14117;BME280;7137;51.436;6.544;2022-10-16T02:02:42;100690.66;;;13.88;100.00
14117;BME280;7137;51.436;6.544;2022-10-16T02:05:47;100706.94;;;13.76;100.00
14117;BME280;7137;51.436;6.544;2022-10-16T02:08:49;100704.00;;;13.84;100.00
14117;BME280;7137;51.436;6.544;2022-10-16T02:11:52;100700.78;;;13.77;100.00
14117;BME280;7137;51.436;6.544;2022-10-16T02:14:57;100698.94;;;13.79;100.00
14117;BME280;7137;51.436;6.544;2022-10-16T02:17:58;100699.00;;;13.78;100.00
14117;BME280;7137;51.436;6.544;2022-10-16T02:21:02;100698.50;;;13.70;100.00
14117;BME280;7137;51.436;6.544;2022-10-16T02:24:11;100708.16;;;13.69;100.00
14117;BME280;7137;51.436;6.544;2022-10-16T02:27:21;100703.63;;;13.73;100.00
14117;BME280;7137;51.436;6.544;2022-10-16T02:30:28;100701.22;;;13.68;100.00
14117;BME280;7137;51.436;6.544;2022-10-16T02:33:32;100710.25;;;13.61;100.00
14117;BME280;7137;51.436;6.544;2022-10-16T02:36:35;100715.19;;;13.69;100.00
14117;BME280;7137;51.436;6.544;2022-10-16T02:39:38;100700.00;;;13.75;100.00
14117;BME280;7137;51.436;6.544;2022-10-16T02:42:41;100696.88;;;13.67;100.00
14117;BME280;7137;51.436;6.544;2022-10-16T02:45:43;100702.75;;;13.72;100.00
14117;BME280;7137;51.436;6.544;2022-10-16T02:48:45;100698.50;;;13.70;100.00
14117;BME280;7137;51.436;6.544;2022-10-16T02:51:47;100707.09;;;13.73;100.00
14117;BME280;7137;51.436;6.544;2022-10-16T02:54:48;100702.53;;;13.77;100.00
14117;BME280;7137;51.436;6.544;2022-10-16T02:57:50;100698.16;;;13.77;100.00
14117;BME280;7137;51.436;6.544;2022-10-16T03:00:52;100700.44;;;13.85;100.00
14117;BME280;7137;51.436;6.544;2022-10-16T03:03:54;100703.28;;;13.80;100.00
14117;BME280;7137;51.436;6.544;2022-10-16T03:06:55;100702.16;;;13.86;100.00
14117;BME280;7137;51.436;6.544;2022-10-16T03:09:57;100705.38;;;13.72;100.00
14117;BME280;7137;51.436;6.544;2022-10-16T03:13:00;100704.41;;;13.75;100.00
14117;BME280;7137;51.436;6.544;2022-10-16T03:16:03;100698.59;;;13.87;100.00
14117;BME280;7137;51.436;6.544;2022-10-16T03:19:05;100693.19;;;13.90;100.00
14117;BME280;7137;51.436;6.544;2022-10-16T03:22:06;100700.94;;;13.93;100.00
14117;BME280;7137;51.436;6.544;2022-10-16T03:25:08;100708.31;;;14.04;99.48
14117;BME280;7137;51.436;6.544;2022-10-16T03:28:10;100697.41;;;13.94;99.55
14117;BME280;7137;51.436;6.544;2022-10-16T03:31:13;100691.09;;;13.98;99.55
14117;BME280;7137;51.436;6.544;2022-10-16T03:34:14;100687.47;;;14.01;99.06
14117;BME280;7137;51.436;6.544;2022-10-16T03:37:16;100699.19;;;13.93;98.71
14117;BME280;7137;51.436;6.544;2022-10-16T03:40:17;100701.44;;;13.82;99.79
14117;BME280;7137;51.436;6.544;2022-10-16T03:43:19;100703.84;;;13.68;100.00
14117;BME280;7137;51.436;6.544;2022-10-16T03:46:21;100716.81;;;13.71;100.00
14117;BME280;7137;51.436;6.544;2022-10-16T03:49:23;100731.84;;;13.68;100.00
14117;BME280;7137;51.436;6.544;2022-10-16T03:52:24;100729.66;;;13.77;100.00
14117;BME280;7137;51.436;6.544;2022-10-16T03:55:26;100732.94;;;13.82;99.69
14117;BME280;7137;51.436;6.544;2022-10-16T03:58:27;100720.22;;;13.73;100.00
14117;BME280;7137;51.436;6.544;2022-10-16T04:01:30;100724.34;;;13.79;99.95
14117;BME280;7137;51.436;6.544;2022-10-16T04:04:32;100722.31;;;13.85;99.77
14117;BME280;7137;51.436;6.544;2022-10-16T04:07:33;100724.22;;;13.82;99.78
14117;BME280;7137;51.436;6.544;2022-10-16T04:10:35;100737.28;;;13.83;99.13
14117;BME280;7137;51.436;6.544;2022-10-16T04:13:36;100730.50;;;13.78;99.77
14117;BME280;7137;51.436;6.544;2022-10-16T04:16:39;100728.97;;;13.92;98.63
14117;BME280;7137;51.436;6.544;2022-10-16T04:19:41;100729.72;;;13.76;99.66
14117;BME280;7137;51.436;6.544;2022-10-16T04:22:42;100736.75;;;13.75;100.00
14117;BME280;7137;51.436;6.544;2022-10-16T04:25:43;100734.44;;;13.88;98.66
14117;BME280;7137;51.436;6.544;2022-10-16T04:28:45;100742.38;;;13.86;99.04
14117;BME280;7137;51.436;6.544;2022-10-16T04:31:48;100760.56;;;13.91;98.07
14117;BME280;7137;51.436;6.544;2022-10-16T04:34:49;100763.47;;;13.64;99.12
14117;BME280;7137;51.436;6.544;2022-10-16T04:37:51;100764.28;;;13.66;99.16
14117;BME280;7137;51.436;6.544;2022-10-16T04:40:52;100759.53;;;13.75;99.67
14117;BME280;7137;51.436;6.544;2022-10-16T04:43:54;100770.41;;;13.86;97.83
14117;BME280;7137;51.436;6.544;2022-10-16T04:46:57;100763.69;;;13.80;98.33
14117;BME280;7137;51.436;6.544;2022-10-16T04:49:58;100768.13;;;13.78;98.70
14117;BME280;7137;51.436;6.544;2022-10-16T04:53:02;100775.41;;;13.72;99.95
14117;BME280;7137;51.436;6.544;2022-10-16T04:56:04;100781.06;;;13.83;98.48
14117;BME280;7137;51.436;6.544;2022-10-16T04:59:06;100780.00;;;13.87;98.20
14117;BME280;7137;51.436;6.544;2022-10-16T05:02:08;100792.66;;;13.77;98.77
14117;BME280;7137;51.436;6.544;2022-10-16T05:05:10;100778.97;;;13.71;99.19
14117;BME280;7137;51.436;6.544;2022-10-16T05:08:13;100791.88;;;13.75;99.32
14117;BME280;7137;51.436;6.544;2022-10-16T05:11:14;100793.44;;;13.79;98.51
14117;BME280;7137;51.436;6.544;2022-10-16T05:14:16;100793.78;;;13.72;99.75
14117;BME280;7137;51.436;6.544;2022-10-16T05:17:19;100802.91;;;13.83;98.59
14117;BME280;7137;51.436;6.544;2022-10-16T05:20:20;100801.59;;;13.73;99.75
14117;BME280;7137;51.436;6.544;2022-10-16T05:23:22;100801.69;;;13.72;99.15
14117;BME280;7137;51.436;6.544;2022-10-16T05:26:23;100801.03;;;13.66;99.49
14117;BME280;7137;51.436;6.544;2022-10-16T05:29:25;100795.72;;;13.68;99.36
14117;BME280;7137;51.436;6.544;2022-10-16T05:32:28;100806.72;;;13.76;99.03
14117;BME280;7137;51.436;6.544;2022-10-16T05:35:29;100811.38;;;13.70;100.00
14117;BME280;7137;51.436;6.544;2022-10-16T05:38:30;100807.50;;;13.58;100.00
14117;BME280;7137;51.436;6.544;2022-10-16T05:41:32;100812.50;;;13.64;100.00
14117;BME280;7137;51.436;6.544;2022-10-16T05:44:33;100816.31;;;13.57;100.00
14117;BME280;7137;51.436;6.544;2022-10-16T05:47:36;100826.34;;;13.68;99.36
14117;BME280;7137;51.436;6.544;2022-10-16T05:50:38;100833.28;;;13.48;100.00
14117;BME280;7137;51.436;6.544;2022-10-16T05:53:40;100837.38;;;13.55;100.00
14117;BME280;7137;51.436;6.544;2022-10-16T05:56:42;100834.06;;;13.50;100.00
14117;BME280;7137;51.436;6.544;2022-10-16T05:59:43;100830.88;;;13.64;98.99
14117;BME280;7137;51.436;6.544;2022-10-16T06:02:47;100852.19;;;13.56;99.03
14117;BME280;7137;51.436;6.544;2022-10-16T06:05:48;100848.09;;;13.49;100.00
14117;BME280;7137;51.436;6.544;2022-10-16T06:08:50;100855.97;;;13.49;100.00
14117;BME280;7137;51.436;6.544;2022-10-16T06:11:51;100864.66;;;13.51;100.00
14117;BME280;7137;51.436;6.544;2022-10-16T06:14:53;100860.50;;;13.46;100.00
14117;BME280;7137;51.436;6.544;2022-10-16T06:17:56;100869.59;;;13.59;100.00
14117;BME280;7137;51.436;6.544;2022-10-16T06:20:57;100867.69;;;13.62;100.00
14117;BME280;7137;51.436;6.544;2022-10-16T06:23:59;100876.25;;;13.68;100.00
14117;BME280;7137;51.436;6.544;2022-10-16T06:27:00;100870.06;;;13.69;100.00
14117;BME280;7137;51.436;6.544;2022-10-16T06:30:02;100878.31;;;13.59;100.00
14117;BME280;7137;51.436;6.544;2022-10-16T06:33:05;100889.72;;;13.80;100.00
14117;BME280;7137;51.436;6.544;2022-10-16T06:36:09;100883.78;;;13.75;100.00
14117;BME280;7137;51.436;6.544;2022-10-16T06:39:11;100891.78;;;13.72;100.00
14117;BME280;7137;51.436;6.544;2022-10-16T06:42:12;100897.91;;;13.93;99.48
14117;BME280;7137;51.436;6.544;2022-10-16T06:45:14;100907.25;;;13.80;100.00
14117;BME280;7137;51.436;6.544;2022-10-16T06:48:17;100904.31;;;13.65;100.00
14117;BME280;7137;51.436;6.544;2022-10-16T06:51:19;100917.78;;;13.78;100.00
14117;BME280;7137;51.436;6.544;2022-10-16T06:54:22;100925.06;;;13.72;100.00
14117;BME280;7137;51.436;6.544;2022-10-16T06:57:23;100934.78;;;13.70;100.00
14117;BME280;7137;51.436;6.544;2022-10-16T07:00:25;100940.53;;;13.57;100.00
14117;BME280;7137;51.436;6.544;2022-10-16T07:03:27;100948.13;;;13.63;100.00
14117;BME280;7137;51.436;6.544;2022-10-16T07:06:32;100958.78;;;13.60;100.00
14117;BME280;7137;51.436;6.544;2022-10-16T07:09:34;100962.44;;;13.56;100.00
14117;BME280;7137;51.436;6.544;2022-10-16T07:12:36;100966.34;;;13.46;100.00
14117;BME280;7137;51.436;6.544;2022-10-16T07:15:37;100970.91;;;13.41;100.00
14117;BME280;7137;51.436;6.544;2022-10-16T07:18:41;100967.88;;;13.52;100.00
14117;BME280;7137;51.436;6.544;2022-10-16T07:21:44;100961.47;;;13.59;100.00
14117;BME280;7137;51.436;6.544;2022-10-16T07:24:45;100979.94;;;13.78;100.00
14117;BME280;7137;51.436;6.544;2022-10-16T07:27:46;100977.50;;;13.95;100.00
14117;BME280;7137;51.436;6.544;2022-10-16T07:30:48;100983.69;;;13.94;100.00
14117;BME280;7137;51.436;6.544;2022-10-16T07:33:51;100986.38;;;14.13;100.00
14117;BME280;7137;51.436;6.544;2022-10-16T07:36:52;100995.59;;;14.43;100.00
14117;BME280;7137;51.436;6.544;2022-10-16T07:39:55;100997.22;;;14.87;99.37
14117;BME280;7137;51.436;6.544;2022-10-16T07:42:56;100999.88;;;15.81;95.80
14117;BME280;7137;51.436;6.544;2022-10-16T07:45:58;101011.66;;;18.95;80.55
14117;BME280;7137;51.436;6.544;2022-10-16T07:49:01;101027.56;;;21.47;67.43
14117;BME280;7137;51.436;6.544;2022-10-16T07:52:02;101034.84;;;22.17;61.93
14117;BME280;7137;51.436;6.544;2022-10-16T07:55:05;101035.91;;;22.38;58.99
14117;BME280;7137;51.436;6.544;2022-10-16T07:58:06;101032.59;;;23.82;55.92
14117;BME280;7137;51.436;6.544;2022-10-16T08:01:10;101044.00;;;24.69;53.62
14117;BME280;7137;51.436;6.544;2022-10-16T08:04:13;101053.31;;;24.74;52.58
14117;BME280;7137;51.436;6.544;2022-10-16T08:07:14;101061.38;;;23.33;56.24
14117;BME280;7137;51.436;6.544;2022-10-16T08:10:17;101062.69;;;24.16;52.22
14117;BME280;7137;51.436;6.544;2022-10-16T08:13:19;101069.94;;;25.20;51.01
14117;BME280;7137;51.436;6.544;2022-10-16T08:16:21;101072.16;;;24.52;52.37
14117;BME280;7137;51.436;6.544;2022-10-16T08:19:23;101082.88;;;25.55;50.09
14117;BME280;7137;51.436;6.544;2022-10-16T08:22:25;101078.84;;;24.14;53.15
14117;BME280;7137;51.436;6.544;2022-10-16T08:25:27;101087.25;;;24.42;52.96
14117;BME280;7137;51.436;6.544;2022-10-16T08:28:28;101090.09;;;25.64;49.68
14117;BME280;7137;51.436;6.544;2022-10-16T08:31:30;101094.66;;;24.49;52.34
14117;BME280;7137;51.436;6.544;2022-10-16T08:34:33;101101.03;;;24.58;52.36
14117;BME280;7137;51.436;6.544;2022-10-16T08:37:34;101105.69;;;24.45;53.63
14117;BME280;7137;51.436;6.544;2022-10-16T08:40:36;101098.13;;;22.01;59.85
14117;BME280;7137;51.436;6.544;2022-10-16T08:43:49;101107.81;;;23.76;53.90
14117;BME280;7137;51.436;6.544;2022-10-16T08:47:02;101112.88;;;22.76;56.73
14117;BME280;7137;51.436;6.544;2022-10-16T08:50:13;101104.59;;;24.04;55.63
14117;BME280;7137;51.436;6.544;2022-10-16T08:53:17;101111.19;;;24.43;53.09
14117;BME280;7137;51.436;6.544;2022-10-16T08:56:23;101122.38;;;23.60;54.56
14117;BME280;7137;51.436;6.544;2022-10-16T08:59:25;101137.31;;;24.17;53.27
14117;BME280;7137;51.436;6.544;2022-10-16T09:02:32;101128.03;;;23.22;57.10
14117;BME280;7137;51.436;6.544;2022-10-16T09:09:23;101127.94;;;23.24;55.08
14117;BME280;7137;51.436;6.544;2022-10-16T09:12:33;101124.28;;;23.25;55.47
14117;BME280;7137;51.436;6.544;2022-10-16T09:15:44;101130.56;;;23.35;57.15
14117;BME280;7137;51.436;6.544;2022-10-16T09:18:54;101138.97;;;22.25;58.28
14117;BME280;7137;51.436;6.544;2022-10-16T09:22:04;101129.19;;;22.13;59.56
14117;BME280;7137;51.436;6.544;2022-10-16T09:25:12;101131.84;;;22.61;58.50
14117;BME280;7137;51.436;6.544;2022-10-16T09:28:15;101146.91;;;24.63;54.08
14117;BME280;7137;51.436;6.544;2022-10-16T09:31:18;101149.19;;;25.21;50.55
14117;BME280;7137;51.436;6.544;2022-10-16T09:34:27;101139.84;;;22.85;55.77
14117;BME280;7137;51.436;6.544;2022-10-16T09:37:31;101146.66;;;22.04;58.54
14117;BME280;7137;51.436;6.544;2022-10-16T09:40:34;101155.00;;;22.71;57.04
14117;BME280;7137;51.436;6.544;2022-10-16T09:43:39;101155.66;;;22.27;57.20
14117;BME280;7137;51.436;6.544;2022-10-16T09:46:41;101148.72;;;22.48;56.81
14117;BME280;7137;51.436;6.544;2022-10-16T09:49:50;101149.56;;;21.88;59.94
14117;BME280;7137;51.436;6.544;2022-10-16T09:53:05;101157.69;;;22.47;59.04
14117;BME280;7137;51.436;6.544;2022-10-16T09:56:06;101151.56;;;22.10;60.44
14117;BME280;7137;51.436;6.544;2022-10-16T09:59:11;101155.19;;;22.57;57.25
14117;BME280;7137;51.436;6.544;2022-10-16T10:02:14;101151.72;;;21.20;62.43
14117;BME280;7137;51.436;6.544;2022-10-16T10:05:19;101154.38;;;21.07;61.39
14117;BME280;7137;51.436;6.544;2022-10-16T10:08:24;101147.34;;;21.06;61.83
14117;BME280;7137;51.436;6.544;2022-10-16T10:11:40;101150.00;;;21.06;61.07
14117;BME280;7137;51.436;6.544;2022-10-16T10:14:44;101146.97;;;21.50;60.74
14117;BME280;7137;51.436;6.544;2022-10-16T10:17:49;101150.66;;;21.10;61.86
14117;BME280;7137;51.436;6.544;2022-10-16T10:20:58;101158.59;;;20.84;63.77
14117;BME280;7137;51.436;6.544;2022-10-16T10:24:01;101154.47;;;20.53;64.87
14117;BME280;7137;51.436;6.544;2022-10-16T10:27:09;101155.63;;;20.49;64.86
14117;BME280;7137;51.436;6.544;2022-10-16T10:30:20;101173.56;;;20.31;63.67
14117;BME280;7137;51.436;6.544;2022-10-16T10:33:28;101169.97;;;20.32;65.05
14117;BME280;7137;51.436;6.544;2022-10-16T10:36:34;101173.25;;;20.50;64.89
14117;BME280;7137;51.436;6.544;2022-10-16T10:39:44;101181.88;;;20.39;63.07
14117;BME280;7137;51.436;6.544;2022-10-16T10:42:50;101167.84;;;20.37;64.50
14117;BME280;7137;51.436;6.544;2022-10-16T10:45:58;101171.44;;;20.09;65.11
14117;BME280;7137;51.436;6.544;2022-10-16T10:49:23;101168.56;;;20.12;64.58
14117;BME280;7137;51.436;6.544;2022-10-16T10:52:37;101175.16;;;20.34;65.04
14117;BME280;7137;51.436;6.544;2022-10-16T10:55:48;101180.66;;;20.72;64.55
14117;BME280;7137;51.436;6.544;2022-10-16T10:59:18;101176.94;;;20.74;63.25
14117;BME280;7137;51.436;6.544;2022-10-16T11:02:32;101179.91;;;21.86;59.74
14117;BME280;7137;51.436;6.544;2022-10-16T11:05:41;101183.44;;;22.84;56.59
14117;BME280;7137;51.436;6.544;2022-10-16T11:08:46;101178.56;;;22.54;57.13
14117;BME280;7137;51.436;6.544;2022-10-16T11:11:54;101180.03;;;22.21;57.45
14117;BME280;7137;51.436;6.544;2022-10-16T11:15:02;101177.50;;;22.91;57.04
14117;BME280;7137;51.436;6.544;2022-10-16T11:18:07;101188.91;;;22.69;57.00
14117;BME280;7137;51.436;6.544;2022-10-16T11:21:14;101193.50;;;22.07;57.22
14117;BME280;7137;51.436;6.544;2022-10-16T11:24:21;101181.97;;;23.26;55.27
14117;BME280;7137;51.436;6.544;2022-10-16T11:27:31;101191.63;;;22.57;54.84
14117;BME280;7137;51.436;6.544;2022-10-16T11:30:41;101192.06;;;22.74;55.51
14117;BME280;7137;51.436;6.544;2022-10-16T11:33:48;101191.63;;;22.57;55.82
14117;BME280;7137;51.436;6.544;2022-10-16T11:36:56;101188.41;;;23.23;56.33
14117;BME280;7137;51.436;6.544;2022-10-16T11:40:10;101193.19;;;21.99;56.26
14117;BME280;7137;51.436;6.544;2022-10-16T11:43:22;101185.78;;;21.66;56.99
14117;BME280;7137;51.436;6.544;2022-10-16T11:46:27;101191.81;;;21.80;57.43
14117;BME280;7137;51.436;6.544;2022-10-16T11:49:31;101190.91;;;21.43;58.93
14117;BME280;7137;51.436;6.544;2022-10-16T11:52:38;101203.13;;;21.58;59.02
14117;BME280;7137;51.436;6.544;2022-10-16T11:55:43;101205.44;;;21.38;59.44
14117;BME280;7137;51.436;6.544;2022-10-16T11:58:53;101214.63;;;21.59;60.50
14117;BME280;7137;51.436;6.544;2022-10-16T12:02:26;101215.44;;;21.34;58.87
14117;BME280;7137;51.436;6.544;2022-10-16T12:05:35;101207.94;;;21.01;59.50
14117;BME280;7137;51.436;6.544;2022-10-16T12:08:47;101215.81;;;21.15;60.66
14117;BME280;7137;51.436;6.544;2022-10-16T12:11:49;101219.41;;;21.01;60.57
14117;BME280;7137;51.436;6.544;2022-10-16T12:15:00;101216.09;;;20.58;61.32
14117;BME280;7137;51.436;6.544;2022-10-16T12:18:01;101220.22;;;20.89;61.51
14117;BME280;7137;51.436;6.544;2022-10-16T12:21:03;101210.06;;;21.09;60.23
14117;BME280;7137;51.436;6.544;2022-10-16T12:24:21;101215.94;;;20.74;60.72
14117;BME280;7137;51.436;6.544;2022-10-16T12:27:27;101201.06;;;20.44;60.53
14117;BME280;7137;51.436;6.544;2022-10-16T12:30:32;101206.22;;;20.60;61.32
14117;BME280;7137;51.436;6.544;2022-10-16T12:33:36;101209.28;;;20.26;60.82
14117;BME280;7137;51.436;6.544;2022-10-16T12:36:39;101212.63;;;20.70;60.12
14117;BME280;7137;51.436;6.544;2022-10-16T12:39:41;101206.19;;;20.87;59.53
14117;BME280;7137;51.436;6.544;2022-10-16T12:42:42;101206.47;;;20.83;60.29
14117;BME280;7137;51.436;6.544;2022-10-16T12:46:03;101204.50;;;20.59;61.33
14117;BME280;7137;51.436;6.544;2022-10-16T12:49:22;101212.44;;;20.73;62.22
14117;BME280;7137;51.436;6.544;2022-10-16T12:52:31;101207.66;;;20.79;61.27
14117;BME280;7137;51.436;6.544;2022-10-16T12:55:45;101219.81;;;20.56;62.12
14117;BME280;7137;51.436;6.544;2022-10-16T12:59:02;101208.88;;;20.60;62.59
14117;BME280;7137;51.436;6.544;2022-10-16T13:02:32;101219.16;;;20.24;63.39
14117;BME280;7137;51.436;6.544;2022-10-16T13:05:51;101212.06;;;20.10;63.94
14117;BME280;7137;51.436;6.544;2022-10-16T13:09:18;101214.44;;;20.43;63.29
14117;BME280;7137;51.436;6.544;2022-10-16T13:15:55;101207.78;;;20.90;61.23
14117;BME280;7137;51.436;6.544;2022-10-16T13:19:20;101214.94;;;20.62;60.12
14117;BME280;7137;51.436;6.544;2022-10-16T13:22:30;101235.16;;;20.78;61.41
14117;BME280;7137;51.436;6.544;2022-10-16T13:25:43;101223.44;;;20.67;61.30
14117;BME280;7137;51.436;6.544;2022-10-16T13:28:47;101229.59;;;20.68;61.91
14117;BME280;7137;51.436;6.544;2022-10-16T13:31:49;101238.28;;;20.84;61.29
14117;BME280;7137;51.436;6.544;2022-10-16T13:34:52;101232.34;;;20.93;60.08
14117;BME280;7137;51.436;6.544;2022-10-16T13:38:05;101216.47;;;21.19;59.63
14117;BME280;7137;51.436;6.544;2022-10-16T13:41:15;101224.19;;;21.09;59.28
14117;BME280;7137;51.436;6.544;2022-10-16T13:44:19;101232.19;;;21.22;58.77
14117;BME280;7137;51.436;6.544;2022-10-16T13:47:23;101217.38;;;21.45;58.30
14117;BME280;7137;51.436;6.544;2022-10-16T13:50:26;101210.47;;;21.55;58.17
14117;BME280;7137;51.436;6.544;2022-10-16T13:53:30;101219.94;;;21.72;57.21
14117;BME280;7137;51.436;6.544;2022-10-16T13:56:32;101229.72;;;21.84;57.64
14117;BME280;7137;51.436;6.544;2022-10-16T13:59:35;101233.22;;;21.46;57.66
14117;BME280;7137;51.436;6.544;2022-10-16T14:02:39;101236.72;;;21.34;58.65
14117;BME280;7137;51.436;6.544;2022-10-16T14:05:46;101247.50;;;21.18;59.94
14117;BME280;7137;51.436;6.544;2022-10-16T14:08:52;101256.16;;;20.95;60.41
14117;BME280;7137;51.436;6.544;2022-10-16T14:11:57;101256.16;;;20.95;60.41
14117;BME280;7137;51.436;6.544;2022-10-16T14:15:00;101246.19;;;21.11;60.35
14117;BME280;7137;51.436;6.544;2022-10-16T14:18:02;101228.56;;;21.10;59.94
14117;BME280;7137;51.436;6.544;2022-10-16T14:21:10;101239.06;;;21.26;59.60
14117;BME280;7137;51.436;6.544;2022-10-16T14:24:14;101231.34;;;21.21;60.35
14117;BME280;7137;51.436;6.544;2022-10-16T14:27:29;101236.19;;;21.42;60.02
14117;BME280;7137;51.436;6.544;2022-10-16T14:30:33;101244.38;;;21.64;60.36
14117;BME280;7137;51.436;6.544;2022-10-16T14:33:35;101258.13;;;21.71;59.78
14117;BME280;7137;51.436;6.544;2022-10-16T14:36:40;101250.03;;;21.72;59.80
14117;BME280;7137;51.436;6.544;2022-10-16T14:39:42;101248.00;;;21.63;59.41
14117;BME280;7137;51.436;6.544;2022-10-16T14:42:44;101243.13;;;21.44;60.62
14117;BME280;7137;51.436;6.544;2022-10-16T14:45:50;101237.44;;;21.36;60.89
14117;BME280;7137;51.436;6.544;2022-10-16T14:48:58;101241.41;;;21.30;61.98
14117;BME280;7137;51.436;6.544;2022-10-16T14:52:07;101244.16;;;21.29;64.23
14117;BME280;7137;51.436;6.544;2022-10-16T14:55:09;101236.06;;;21.30;65.03
14117;BME280;7137;51.436;6.544;2022-10-16T14:58:14;101238.00;;;21.28;64.35
14117;BME280;7137;51.436;6.544;2022-10-16T15:01:16;101228.06;;;21.18;65.25
14117;BME280;7137;51.436;6.544;2022-10-16T15:04:18;101233.75;;;20.99;65.24
14117;BME280;7137;51.436;6.544;2022-10-16T15:07:21;101220.66;;;20.83;66.18
14117;BME280;7137;51.436;6.544;2022-10-16T15:10:25;101228.16;;;20.77;65.70
14117;BME280;7137;51.436;6.544;2022-10-16T15:13:27;101227.63;;;20.71;65.59
14117;BME280;7137;51.436;6.544;2022-10-16T15:16:29;101227.63;;;20.71;65.98
14117;BME280;7137;51.436;6.544;2022-10-16T15:19:30;101223.25;;;20.70;65.27
14117;BME280;7137;51.436;6.544;2022-10-16T15:22:33;101227.03;;;20.66;66.49
14117;BME280;7137;51.436;6.544;2022-10-16T15:25:38;101215.66;;;20.64;66.22
14117;BME280;7137;51.436;6.544;2022-10-16T15:28:41;101213.63;;;20.55;66.21
14117;BME280;7137;51.436;6.544;2022-10-16T15:31:43;101220.28;;;20.48;67.01
14117;BME280;7137;51.436;6.544;2022-10-16T15:34:47;101202.25;;;20.53;66.46
14117;BME280;7137;51.436;6.544;2022-10-16T15:37:50;101213.66;;;20.41;66.87
14117;BME280;7137;51.436;6.544;2022-10-16T15:40:51;101208.91;;;20.32;67.04
14117;BME280;7137;51.436;6.544;2022-10-16T15:43:53;101197.34;;;20.33;67.61
14117;BME280;7137;51.436;6.544;2022-10-16T15:46:55;101214.38;;;20.16;68.02
14117;BME280;7137;51.436;6.544;2022-10-16T15:49:56;101197.50;;;20.03;69.02
14117;BME280;7137;51.436;6.544;2022-10-16T15:52:59;101206.03;;;19.94;69.58
14117;BME280;7137;51.436;6.544;2022-10-16T15:56:01;101202.19;;;19.85;71.05
14117;BME280;7137;51.436;6.544;2022-10-16T15:59:03;101192.88;;;19.78;71.41
14117;BME280;7137;51.436;6.544;2022-10-16T16:02:05;101190.53;;;19.73;72.81
14117;BME280;7137;51.436;6.544;2022-10-16T16:05:07;101196.41;;;19.64;72.89
14117;BME280;7137;51.436;6.544;2022-10-16T16:08:10;101195.09;;;19.57;72.34
14117;BME280;7137;51.436;6.544;2022-10-16T16:11:14;101204.41;;;19.48;73.43
14117;BME280;7137;51.436;6.544;2022-10-16T16:14:16;101201.44;;;19.39;74.14
14117;BME280;7137;51.436;6.544;2022-10-16T16:17:17;101197.47;;;19.32;73.76
14117;BME280;7137;51.436;6.544;2022-10-16T16:20:19;101201.72;;;19.20;75.72
14117;BME280;7137;51.436;6.544;2022-10-16T16:23:22;101203.19;;;19.10;76.56